CYRL

Red Lake Airport

Red Lake, Ontario, Canada
METAR CYRL 172300Z 23006KT 14SM FU FEW100 FEW220 23/07 A3006 RMK AC1CI1 AC TR SLP185 DENSITY ALT 2300FT
Observed Flight Rules
Jul-17 @ 23:00 UTC (23 minutes ago) Visual Flight Rules
Wind Visibility Clouds Conditions
230° at 6 knots 14 miles
  • Few at 10,000' AGL
  • Few at 22,000' AGL
  • Smoke
Temperatures Readings
Current 23°C / 73°F
Dewpoint 7°C / 45°F
Humidity 36%
Altimeter 30.06" Hg
Pressure 1018.5 hPa
Elevation 383
METAR CYRL 172300Z 23006KT 14SM FU FEW100 FEW220 23/07 A3006 RMK AC1CI1 AC TR SLP185 DENSITY ALT 2300FT
Observed Flight Rules
Jul-17 @ 23:00 UTC
(23 minutes ago)
VFR
Wind Visibility
230° at 6 knots 14 miles
Clouds
  • Few at 10,000' AGL
  • Few at 22,000' AGL
Conditions
  • Smoke
Temperature Dewpoint
23°C / 73°F 7°C / 45°F
Humidity Altimeter Pressure
36% 30.06" Hg 1018.5 hPa